Time,TemperatureF,DewpointF,PressureIn,WindDirection,WindDirectionDegrees,WindSpeedMPH,WindSpeedGustMPH,Humidity,HourlyPrecipIn,Conditions,Clouds,dailyrainin,SoftwareType,DateUTC
2013-01-17 00:05:00,43.0,39.0,29.97,North,0,0.0,-999.0,86,-99.99,,,-99.99,,2013-01-17 05:05:00,
2013-01-17 00:12:00,43.0,39.0,29.96,North,0,0.0,-999.0,86,-99.99,,,-99.99,,2013-01-17 05:12:00,
2013-01-17 00:22:00,43.0,39.0,29.96,North,0,0.0,-999.0,86,-99.99,,,-99.99,,2013-01-17 05:22:00,
2013-01-17 00:33:00,43.0,39.0,29.96,North,0,0.0,-999.0,86,-99.99,,,-99.99,,2013-01-17 05:33:00,
2013-01-17 00:42:00,43.0,39.0,29.96,North,0,0.0,-999.0,86,-99.99,,,-99.99,,2013-01-17 05:42:00,
2013-01-17 00:52:00,43.0,39.0,29.97,North,0,0.0,-999.0,86,-99.99,,,-99.99,,2013-01-17 05:52:00,
2013-01-17 01:03:00,43.0,39.0,29.97,North,0,0.0,-999.0,86,-99.99,,,-99.99,,2013-01-17 06:03:00,
2013-01-17 01:12:00,43.0,39.0,29.97,North,0,0.0,-999.0,86,-99.99,,,-99.99,,2013-01-17 06:12:00,
2013-01-17 01:22:00,43.0,39.0,29.97,North,0,0.0,-999.0,86,-99.99,,,-99.99,,2013-01-17 06:22:00,
2013-01-17 01:33:00,43.0,39.0,29.97,North,0,0.0,-999.0,86,-99.99,,,-99.99,,2013-01-17 06:33:00,
2013-01-17 01:42:00,43.0,39.0,29.97,North,0,0.0,-999.0,86,-99.99,,,-99.99,,2013-01-17 06:42:00,
2013-01-17 01:53:00,43.0,39.0,29.99,North,0,0.0,-999.0,86,-99.99,,,-99.99,,2013-01-17 06:53:00,
2013-01-17 02:02:00,43.0,39.0,29.99,North,0,0.0,-999.0,86,-99.99,,,-99.99,,2013-01-17 07:02:00,
2013-01-17 02:12:00,43.0,39.0,30.00,North,0,0.0,-999.0,86,-99.99,,,-99.99,,2013-01-17 07:12:00,
2013-01-17 02:22:00,43.0,39.0,30.00,North,0,0.0,-999.0,86,-99.99,,,-99.99,,2013-01-17 07:22:00,
2013-01-17 02:33:00,43.0,39.0,29.99,North,0,0.0,-999.0,86,-99.99,,,-99.99,,2013-01-17 07:33:00,
2013-01-17 02:42:00,43.0,39.0,29.99,North,0,0.0,-999.0,86,-99.99,,,-99.99,,2013-01-17 07:42:00,
2013-01-17 02:52:00,43.0,39.0,30.00,North,0,0.0,-999.0,86,-99.99,,,-99.99,,2013-01-17 07:52:00,
2013-01-17 03:02:00,43.0,39.0,30.00,North,0,0.0,-999.0,86,-99.99,,,-99.99,,2013-01-17 08:02:00,
2013-01-17 03:12:00,43.0,39.0,29.99,North,0,0.0,-999.0,86,-99.99,,,-99.99,,2013-01-17 08:12:00,
2013-01-17 03:22:00,43.0,39.0,29.99,North,0,0.0,-999.0,86,-99.99,,,-99.99,,2013-01-17 08:22:00,
2013-01-17 03:32:00,43.0,39.0,29.99,North,0,0.0,-999.0,86,-99.99,,,-99.99,,2013-01-17 08:32:00,
2013-01-17 03:43:00,43.0,39.0,29.99,North,0,0.0,-999.0,86,-99.99,,,-99.99,,2013-01-17 08:43:00,
2013-01-17 03:52:00,43.0,39.0,29.98,North,0,0.0,-999.0,86,-99.99,,,-99.99,,2013-01-17 08:52:00,
2013-01-17 04:03:00,43.0,39.0,29.98,North,0,0.0,-999.0,86,-99.99,,,-99.99,,2013-01-17 09:03:00,
2013-01-17 04:12:00,43.0,39.0,29.98,North,0,0.0,-999.0,86,-99.99,,,-99.99,,2013-01-17 09:12:00,
2013-01-17 04:22:00,43.0,39.0,29.98,North,0,0.0,-999.0,86,-99.99,,,-99.99,,2013-01-17 09:22:00,
2013-01-17 04:33:00,43.0,39.0,29.98,North,0,0.0,-999.0,86,-99.99,,,-99.99,,2013-01-17 09:33:00,
2013-01-17 04:43:00,43.0,39.0,29.98,North,0,0.0,-999.0,86,-99.99,,,-99.99,,2013-01-17 09:43:00,
2013-01-17 04:53:00,43.0,39.0,29.99,North,0,0.0,-999.0,86,-99.99,,,-99.99,,2013-01-17 09:53:00,
2013-01-17 05:02:00,43.0,39.0,29.99,North,0,0.0,-999.0,86,-99.99,,,-99.99,,2013-01-17 10:02:00,
2013-01-17 05:12:00,43.0,39.0,29.98,North,0,0.0,-999.0,86,-99.99,,,-99.99,,2013-01-17 10:12:00,
2013-01-17 05:22:00,43.0,39.0,29.98,North,0,0.0,-999.0,86,-99.99,,,-99.99,,2013-01-17 10:22:00,
2013-01-17 05:32:00,43.0,39.0,30.01,North,0,0.0,-999.0,86,-99.99,,,-99.99,,2013-01-17 10:32:00,
2013-01-17 05:42:00,43.0,39.0,30.01,North,0,0.0,-999.0,86,-99.99,,,-99.99,,2013-01-17 10:42:00,
2013-01-17 05:52:00,43.0,39.0,30.01,North,0,0.0,-999.0,86,-99.99,,,-99.99,,2013-01-17 10:52:00,
2013-01-17 06:03:00,43.0,39.0,30.01,North,0,0.0,-999.0,86,-99.99,,,-99.99,,2013-01-17 11:03:00,
2013-01-17 06:12:00,43.0,39.0,30.01,North,0,0.0,-999.0,86,-99.99,,,-99.99,,2013-01-17 11:12:00,
2013-01-17 06:22:00,43.0,39.0,30.01,North,0,0.0,-999.0,86,-99.99,,,-99.99,,2013-01-17 11:22:00,
2013-01-17 06:33:00,43.0,39.0,30.02,North,0,0.0,-999.0,86,-99.99,,,-99.99,,2013-01-17 11:33:00,
2013-01-17 06:43:00,43.0,39.0,30.02,North,0,0.0,-999.0,86,-99.99,,,-99.99,,2013-01-17 11:43:00,
2013-01-17 06:52:00,43.0,39.0,30.03,North,0,0.0,-999.0,86,-99.99,,,-99.99,,2013-01-17 11:52:00,
2013-01-17 07:03:00,43.0,39.0,30.03,North,0,0.0,-999.0,86,-99.99,,,-99.99,,2013-01-17 12:03:00,
2013-01-17 07:12:00,43.0,39.0,30.04,North,0,0.0,-999.0,86,-99.99,,,-99.99,,2013-01-17 12:12:00,
2013-01-17 07:23:00,43.0,39.0,30.04,North,0,0.0,-999.0,86,-99.99,,,-99.99,,2013-01-17 12:23:00,
2013-01-17 07:33:00,43.0,39.0,30.04,North,0,0.0,-999.0,86,-99.99,,,-99.99,,2013-01-17 12:33:00,
2013-01-17 07:43:00,43.0,39.0,30.04,North,0,0.0,-999.0,86,-99.99,,,-99.99,,2013-01-17 12:43:00,
2013-01-17 07:52:00,43.0,39.0,30.04,North,0,0.0,-999.0,86,-99.99,,,-99.99,,2013-01-17 12:52:00,
2013-01-17 08:03:00,43.0,39.0,30.04,North,0,0.0,-999.0,86,-99.99,,,-99.99,,2013-01-17 13:03:00,
2013-01-17 08:12:00,43.0,37.0,30.06,North,0,0.0,-999.0,81,-99.99,,,-99.99,,2013-01-17 13:12:00,
2013-01-17 08:23:00,43.0,37.0,30.06,North,0,0.0,-999.0,81,-99.99,,,-99.99,,2013-01-17 13:23:00,
2013-01-17 08:33:00,43.0,37.0,30.06,North,0,0.0,-999.0,81,-99.99,,,-99.99,,2013-01-17 13:33:00,
2013-01-17 08:43:00,43.0,37.0,30.06,North,0,0.0,-999.0,81,-99.99,,,-99.99,,2013-01-17 13:43:00,
2013-01-17 08:52:00,43.0,36.0,30.08,North,0,0.0,-999.0,75,-99.99,,,-99.99,,2013-01-17 13:52:00,
2013-01-17 09:03:00,43.0,36.0,30.08,North,0,0.0,-999.0,75,-99.99,,,-99.99,,2013-01-17 14:03:00,
2013-01-17 09:12:00,43.0,37.0,30.10,North,0,0.0,-999.0,81,-99.99,,,-99.99,,2013-01-17 14:12:00,
2013-01-17 09:23:00,43.0,37.0,30.10,North,0,0.0,-999.0,81,-99.99,,,-99.99,,2013-01-17 14:23:00,
2013-01-17 09:33:00,43.0,34.0,30.09,North,0,0.0,-999.0,70,-99.99,,,-99.99,,2013-01-17 14:33:00,
2013-01-17 09:43:00,43.0,34.0,30.09,North,0,0.0,-999.0,70,-99.99,,,-99.99,,2013-01-17 14:43:00,
2013-01-17 09:53:00,43.0,34.0,30.11,North,0,0.0,-999.0,70,-99.99,,,-99.99,,2013-01-17 14:53:00,
2013-01-17 10:03:00,43.0,34.0,30.11,North,0,0.0,-999.0,70,-99.99,,,-99.99,,2013-01-17 15:03:00,
2013-01-17 10:13:00,43.0,34.0,30.11,North,0,0.0,-999.0,70,-99.99,,,-99.99,,2013-01-17 15:13:00,
2013-01-17 10:23:00,43.0,34.0,30.11,North,0,0.0,-999.0,70,-99.99,,,-99.99,,2013-01-17 15:23:00,
2013-01-17 10:33:00,45.0,34.0,30.10,North,0,0.0,-999.0,65,-99.99,,,-99.99,,2013-01-17 15:33:00,
2013-01-17 10:43:00,45.0,34.0,30.10,North,0,0.0,-999.0,65,-99.99,,,-99.99,,2013-01-17 15:43:00,
2013-01-17 10:53:00,45.0,32.0,30.10,North,0,0.0,-999.0,61,-99.99,,,-99.99,,2013-01-17 15:53:00,
2013-01-17 11:03:00,45.0,32.0,30.10,North,0,0.0,-999.0,61,-99.99,,,-99.99,,2013-01-17 16:03:00,
2013-01-17 11:12:00,45.0,30.0,30.11,North,-99,6.0,-999.0,56,-99.99,,,-99.99,,2013-01-17 16:12:00,
2013-01-17 11:23:00,45.0,30.0,30.11,North,-99,6.0,-999.0,56,-99.99,,,-99.99,,2013-01-17 16:23:00,
2013-01-17 11:33:00,45.0,30.0,30.09,North,360,6.0,-999.0,56,-99.99,,,-99.99,,2013-01-17 16:33:00,
2013-01-17 11:43:00,45.0,30.0,30.09,North,360,6.0,-999.0,56,-99.99,,,-99.99,,2013-01-17 16:43:00,
2013-01-17 11:53:00,45.0,30.0,30.11,North,0,0.0,-999.0,56,-99.99,,,-99.99,,2013-01-17 16:53:00,
2013-01-17 12:03:00,45.0,30.0,30.11,North,0,0.0,-999.0,56,-99.99,,,-99.99,,2013-01-17 17:03:00,
2013-01-17 12:13:00,45.0,32.0,30.09,North,-999,-999.0,-999.0,61,-99.99,,,-99.99,,2013-01-17 17:13:00,
2013-01-17 12:23:00,45.0,32.0,30.09,North,-999,-999.0,-999.0,61,-99.99,,,-99.99,,2013-01-17 17:23:00,
2013-01-17 12:33:00,45.0,30.0,30.08,North,0,0.0,-999.0,56,-99.99,,,-99.99,,2013-01-17 17:33:00,
2013-01-17 12:43:00,45.0,30.0,30.08,North,0,0.0,-999.0,56,-99.99,,,-99.99,,2013-01-17 17:43:00,
2013-01-17 12:53:00,45.0,30.0,30.06,North,0,0.0,-999.0,56,-99.99,,,-99.99,,2013-01-17 17:53:00,
2013-01-17 13:04:00,45.0,30.0,30.06,North,0,0.0,-999.0,56,-99.99,,,-99.99,,2013-01-17 18:04:00,
2013-01-17 13:12:00,45.0,30.0,30.06,NNE,20,7.0,-999.0,56,-99.99,,,-99.99,,2013-01-17 18:12:00,
2013-01-17 13:23:00,45.0,30.0,30.06,NNE,20,7.0,-999.0,56,-99.99,,,-99.99,,2013-01-17 18:23:00,
2013-01-17 13:33:00,45.0,30.0,30.06,North,0,0.0,-999.0,56,-99.99,,,-99.99,,2013-01-17 18:33:00,
2013-01-17 13:44:00,45.0,30.0,30.06,North,0,0.0,-999.0,56,-99.99,,,-99.99,,2013-01-17 18:44:00,
2013-01-17 13:53:00,45.0,30.0,30.06,NE,40,7.0,-999.0,56,-99.99,,,-99.99,,2013-01-17 18:53:00,
2013-01-17 14:04:00,45.0,30.0,30.06,NE,40,7.0,-999.0,56,-99.99,,,-99.99,,2013-01-17 19:04:00,
2013-01-17 14:13:00,45.0,30.0,30.05,NNE,30,5.0,-999.0,56,-99.99,,,-99.99,,2013-01-17 19:13:00,
2013-01-17 14:23:00,45.0,30.0,30.05,NNE,30,5.0,-999.0,56,-99.99,,,-99.99,,2013-01-17 19:23:00,
2013-01-17 14:33:00,43.0,30.0,30.08,North,0,0.0,-999.0,60,-99.99,,,-99.99,,2013-01-17 19:33:00,
2013-01-17 14:43:00,43.0,30.0,30.08,North,0,0.0,-999.0,60,-99.99,,,-99.99,,2013-01-17 19:43:00,
2013-01-17 14:53:00,43.0,30.0,30.06,North,0,0.0,-999.0,60,-99.99,,,-99.99,,2013-01-17 19:53:00,
2013-01-17 15:03:00,43.0,30.0,30.06,North,0,0.0,-999.0,60,-99.99,,,-99.99,,2013-01-17 20:03:00,
2013-01-17 15:12:00,43.0,30.0,30.06,North,0,0.0,-999.0,60,-99.99,,,-99.99,,2013-01-17 20:12:00,
2013-01-17 15:23:00,43.0,30.0,30.06,North,0,0.0,-999.0,60,-99.99,,,-99.99,,2013-01-17 20:23:00,
2013-01-17 15:33:00,43.0,30.0,30.07,North,0,0.0,-999.0,60,-99.99,,,-99.99,,2013-01-17 20:33:00,
2013-01-17 15:43:00,43.0,30.0,30.07,North,0,0.0,-999.0,60,-99.99,,,-99.99,,2013-01-17 20:43:00,
2013-01-17 15:53:00,43.0,30.0,30.07,North,0,0.0,-999.0,60,-99.99,,,-99.99,,2013-01-17 20:53:00,
2013-01-17 16:03:00,43.0,30.0,30.07,North,0,0.0,-999.0,60,-99.99,,,-99.99,,2013-01-17 21:03:00,
2013-01-17 16:13:00,43.0,30.0,30.09,North,0,0.0,-999.0,60,-99.99,,,-99.99,,2013-01-17 21:13:00,
2013-01-17 16:23:00,43.0,30.0,30.09,North,0,0.0,-999.0,60,-99.99,,,-99.99,,2013-01-17 21:23:00,
2013-01-17 16:34:00,43.0,30.0,30.08,North,0,0.0,-999.0,60,-99.99,,,-99.99,,2013-01-17 21:34:00,
2013-01-17 16:43:00,43.0,30.0,30.08,North,0,0.0,-999.0,60,-99.99,,,-99.99,,2013-01-17 21:43:00,
2013-01-17 16:52:00,43.0,30.0,30.08,North,0,0.0,-999.0,60,-99.99,,,-99.99,,2013-01-17 21:52:00,
2013-01-17 17:04:00,43.0,30.0,30.08,North,0,0.0,-999.0,60,-99.99,,,-99.99,,2013-01-17 22:04:00,
2013-01-17 17:12:00,41.0,30.0,30.09,North,0,0.0,-999.0,65,-99.99,,,-99.99,,2013-01-17 22:12:00,
2013-01-17 17:23:00,41.0,30.0,30.09,North,0,0.0,-999.0,65,-99.99,,,-99.99,,2013-01-17 22:23:00,
2013-01-17 17:33:00,41.0,30.0,30.09,North,0,0.0,-999.0,65,-99.99,,,-99.99,,2013-01-17 22:33:00,
2013-01-17 17:43:00,41.0,30.0,30.09,North,0,0.0,-999.0,65,-99.99,,,-99.99,,2013-01-17 22:43:00,
2013-01-17 17:52:00,41.0,30.0,30.08,North,0,0.0,-999.0,65,-99.99,,,-99.99,,2013-01-17 22:52:00,
2013-01-17 18:03:00,41.0,30.0,30.08,North,0,0.0,-999.0,65,-99.99,,,-99.99,,2013-01-17 23:03:00,
2013-01-17 18:12:00,39.0,30.0,30.08,North,0,0.0,-999.0,69,-99.99,,,-99.99,,2013-01-17 23:12:00,
2013-01-17 18:23:00,39.0,30.0,30.08,North,0,0.0,-999.0,69,-99.99,,,-99.99,,2013-01-17 23:23:00,
2013-01-17 18:33:00,39.0,30.0,30.10,North,0,0.0,-999.0,69,-99.99,,,-99.99,,2013-01-17 23:33:00,
2013-01-17 18:43:00,39.0,30.0,30.10,North,0,0.0,-999.0,69,-99.99,,,-99.99,,2013-01-17 23:43:00,
2013-01-17 18:53:00,39.0,30.0,30.11,North,0,0.0,-999.0,69,-99.99,,,-99.99,,2013-01-17 23:53:00,
2013-01-17 19:03:00,39.0,30.0,30.11,North,0,0.0,-999.0,69,-99.99,,,-99.99,,2013-01-18 00:03:00,
2013-01-17 19:12:00,39.0,30.0,30.10,North,0,0.0,-999.0,69,-99.99,,,-99.99,,2013-01-18 00:12:00,
2013-01-17 19:23:00,39.0,30.0,30.10,North,0,0.0,-999.0,69,-99.99,,,-99.99,,2013-01-18 00:23:00,
2013-01-17 19:33:00,39.0,32.0,30.07,North,0,0.0,-999.0,75,-99.99,,,-99.99,,2013-01-18 00:33:00,
2013-01-17 19:43:00,39.0,32.0,30.07,North,0,0.0,-999.0,75,-99.99,,,-99.99,,2013-01-18 00:43:00,
2013-01-17 19:52:00,39.0,30.0,30.08,NNW,330,5.0,-999.0,69,-99.99,,,-99.99,,2013-01-18 00:52:00,
2013-01-17 20:03:00,39.0,30.0,30.08,NNW,330,5.0,-999.0,69,-99.99,,,-99.99,,2013-01-18 01:03:00,
2013-01-17 20:12:00,39.0,30.0,30.07,North,0,0.0,-999.0,69,-99.99,,,-99.99,,2013-01-18 01:12:00,
2013-01-17 20:23:00,39.0,30.0,30.07,North,0,0.0,-999.0,69,-99.99,,,-99.99,,2013-01-18 01:23:00,
2013-01-17 20:33:00,39.0,28.0,30.05,North,-999,-999.0,-999.0,64,-99.99,,,-99.99,,2013-01-18 01:33:00,
2013-01-17 20:43:00,39.0,28.0,30.05,North,-999,-999.0,-999.0,64,-99.99,,,-99.99,,2013-01-18 01:43:00,
2013-01-17 20:52:00,39.0,30.0,30.06,North,0,0.0,-999.0,69,-99.99,,,-99.99,,2013-01-18 01:52:00,
2013-01-17 21:03:00,39.0,30.0,30.06,North,0,0.0,-999.0,69,-99.99,,,-99.99,,2013-01-18 02:03:00,
2013-01-17 21:12:00,39.0,28.0,30.06,North,0,0.0,-999.0,64,-99.99,,,-99.99,,2013-01-18 02:12:00,
2013-01-17 21:23:00,39.0,28.0,30.06,North,0,0.0,-999.0,64,-99.99,,,-99.99,,2013-01-18 02:23:00,
2013-01-17 21:33:00,39.0,28.0,30.05,NNW,340,5.0,-999.0,64,-99.99,,,-99.99,,2013-01-18 02:33:00,
2013-01-17 21:43:00,39.0,28.0,30.05,NNW,340,5.0,-999.0,64,-99.99,,,-99.99,,2013-01-18 02:43:00,
2013-01-17 21:52:00,39.0,28.0,30.04,North,0,0.0,-999.0,64,-99.99,,,-99.99,,2013-01-18 02:52:00,
2013-01-17 22:03:00,39.0,28.0,30.04,North,0,0.0,-999.0,64,-99.99,,,-99.99,,2013-01-18 03:03:00,
2013-01-17 22:12:00,39.0,28.0,30.05,North,0,0.0,-999.0,64,-99.99,,,-99.99,,2013-01-18 03:12:00,
2013-01-17 22:23:00,39.0,28.0,30.05,North,0,0.0,-999.0,64,-99.99,,,-99.99,,2013-01-18 03:23:00,
2013-01-17 22:33:00,39.0,28.0,30.07,North,0,0.0,-999.0,64,-99.99,,,-99.99,,2013-01-18 03:33:00,
2013-01-17 22:43:00,39.0,28.0,30.07,North,0,0.0,-999.0,64,-99.99,,,-99.99,,2013-01-18 03:43:00,
2013-01-17 22:52:00,39.0,28.0,30.06,North,0,0.0,-999.0,64,-99.99,,,-99.99,,2013-01-18 03:52:00,
2013-01-17 23:02:00,39.0,28.0,30.06,North,0,0.0,-999.0,64,-99.99,,,-99.99,,2013-01-18 04:02:00,
2013-01-17 23:12:00,39.0,30.0,30.07,North,0,0.0,-999.0,69,-99.99,,,-99.99,,2013-01-18 04:12:00,
2013-01-17 23:22:00,39.0,30.0,30.07,North,0,0.0,-999.0,69,-99.99,,,-99.99,,2013-01-18 04:22:00,
2013-01-17 23:33:00,37.0,28.0,30.03,North,0,0.0,-999.0,69,-99.99,,,-99.99,,2013-01-18 04:33:00,
2013-01-17 23:42:00,37.0,28.0,30.03,North,0,0.0,-999.0,69,-99.99,,,-99.99,,2013-01-18 04:42:00,
2013-01-17 23:52:00,37.0,28.0,30.03,North,0,0.0,-999.0,69,-99.99,,,-99.99,,2013-01-18 04:52:00,